Time;durP1;ratioP1;P1;durP2;ratioP2;P2;SDS_P1;SDS_P2;PMS_P1;PMS_P2;Temp;Humidity;BMP_temperature;BMP_pressure;BME280_temperature;BME280_humidity;BME280_pressure;Samples;Min_cycle;Max_cycle;Signal;HPM_P1;HPM_P2
2023/06/10 00:02:08;;;;;;;6.35;4.20;;;21.50;88.30;;;;;;5072548;28;20024;-50
2023/06/10 00:04:36;;;;;;;5.78;4.15;;;21.50;88.50;;;;;;5072830;28;20488;-50
2023/06/10 00:07:08;;;;;;;6.07;3.88;;;21.40;88.70;;;;;;5072556;28;20085;-50
2023/06/10 00:09:37;;;;;;;6.20;3.90;;;21.40;89.00;;;;;;5072687;28;20034;-49
2023/06/10 00:12:09;;;;;;;5.18;3.78;;;21.30;89.20;;;;;;5072547;28;20040;-49
2023/06/10 00:14:40;;;;;;;6.75;4.13;;;21.30;89.40;;;;;;5072641;28;20067;-51
2023/06/10 00:17:08;;;;;;;5.20;3.97;;;21.30;89.60;;;;;;5072233;28;20039;-49
2023/06/10 00:19:35;;;;;;;5.55;3.72;;;21.30;89.90;;;;;;5072589;28;20024;-49
2023/06/10 00:22:00;;;;;;;5.53;3.80;;;21.20;90.20;;;;;;5072197;28;20028;-50
2023/06/10 00:24:26;;;;;;;7.18;4.57;;;21.10;90.30;;;;;;5072478;28;20047;-49
2023/06/10 00:26:52;;;;;;;6.32;3.97;;;21.10;90.40;;;;;;5072164;28;20390;-52
2023/06/10 00:29:18;;;;;;;6.53;4.25;;;21.00;90.40;;;;;;5072414;28;20035;-51
2023/06/10 00:31:45;;;;;;;6.82;4.20;;;21.00;90.70;;;;;;5071948;28;20033;-49
2023/06/10 00:34:12;;;;;;;5.88;3.65;;;20.90;90.90;;;;;;5072223;28;20028;-48
2023/06/10 00:36:37;;;;;;;5.78;3.92;;;20.80;91.10;;;;;;5072064;28;20082;-48
2023/06/10 00:39:04;;;;;;;7.25;4.28;;;20.80;91.40;;;;;;5072130;28;20416;-48
2023/06/10 00:41:30;;;;;;;6.47;3.70;;;20.70;91.60;;;;;;5072035;28;20036;-52
2023/06/10 00:43:56;;;;;;;6.10;4.28;;;20.70;91.70;;;;;;5054184;28;20038;-49
2023/06/10 00:46:24;;;;;;;6.70;4.40;;;20.60;91.80;;;;;;5072257;28;20107;-50
2023/06/10 00:48:50;;;;;;;5.80;4.10;;;20.60;92.00;;;;;;5072248;28;20388;-48
2023/06/10 00:51:18;;;;;;;7.38;3.88;;;20.50;92.10;;;;;;5053782;28;20036;-47
2023/06/10 00:53:44;;;;;;;6.57;3.80;;;20.50;92.30;;;;;;5053802;28;20089;-47
2023/06/10 00:56:10;;;;;;;5.88;3.85;;;20.50;92.50;;;;;;5053676;28;20067;-50
2023/06/10 00:58:36;;;;;;;6.90;4.25;;;20.40;92.50;;;;;;5053495;28;20423;-48
2023/06/10 01:01:03;;;;;;;7.60;3.88;;;20.40;92.70;;;;;;5071502;28;20047;-48
2023/06/10 01:03:30;;;;;;;5.22;4.07;;;20.30;92.90;;;;;;5071982;28;20032;-47
2023/06/10 01:06:29;;;;;;;6.38;4.20;;;20.30;93.10;;;;;;5071716;28;20035;-48
2023/06/10 01:08:55;;;;;;;6.30;4.55;;;20.30;93.30;;;;;;5071900;28;20024;-48
2023/06/10 01:11:28;;;;;;;6.35;4.15;;;20.30;93.60;;;;;;5053797;28;20036;-49
2023/06/10 01:13:55;;;;;;;6.00;4.30;;;20.20;93.70;;;;;;5071949;28;20028;-51
2023/06/10 01:16:23;;;;;;;6.07;4.40;;;20.20;93.90;;;;;;5071540;28;20029;-48
2023/06/10 01:18:50;;;;;;;7.05;4.40;;;20.10;94.10;;;;;;5071519;28;20035;-49
2023/06/10 01:21:21;;;;;;;6.38;4.55;;;20.10;94.40;;;;;;5071128;28;20028;-49
2023/06/10 01:23:47;;;;;;;6.65;4.35;;;20.10;94.70;;;;;;5071224;28;20032;-48
2023/06/10 01:26:15;;;;;;;6.38;4.68;;;20.10;94.70;;;;;;5071062;28;20473;-49
2023/06/10 01:28:45;;;;;;;7.07;4.28;;;20.00;95.00;;;;;;5071270;28;20035;-49
2023/06/10 01:31:46;;;;;;;8.13;4.10;;;20.00;95.00;;;;;;5053048;28;20078;-50
2023/06/10 01:34:17;;;;;;;8.80;4.60;;;20.00;95.20;;;;;;5071127;28;20029;-48
2023/06/10 01:36:47;;;;;;;6.13;4.30;;;20.00;95.80;;;;;;5052949;28;20456;-49
2023/06/10 01:39:16;;;;;;;9.25;4.63;;;20.00;95.50;;;;;;5071151;28;20032;-49
2023/06/10 01:41:42;;;;;;;6.43;4.47;;;20.00;95.70;;;;;;5052839;28;20024;-47
2023/06/10 01:44:10;;;;;;;7.05;4.63;;;20.00;95.70;;;;;;5053107;28;20081;-47
2023/06/10 01:46:36;;;;;;;6.18;4.20;;;19.90;95.70;;;;;;5070664;28;20059;-50
2023/06/10 01:49:02;;;;;;;8.45;4.47;;;19.90;96.00;;;;;;5053013;28;20488;-49
2023/06/10 01:51:27;;;;;;;6.28;4.15;;;19.90;96.10;;;;;;5070549;28;20490;-50
2023/06/10 01:53:53;;;;;;;7.72;4.97;;;19.90;96.20;;;;;;5052983;28;20550;-48
2023/06/10 01:56:20;;;;;;;8.02;4.68;;;19.90;96.20;;;;;;5070587;28;20155;-49
2023/06/10 01:58:46;;;;;;;5.57;4.20;;;19.80;96.40;;;;;;5052951;28;20488;-51
2023/06/10 02:01:12;;;;;;;6.55;4.47;;;19.80;96.50;;;;;;5052510;28;20020;-50
2023/06/10 02:03:38;;;;;;;9.65;4.93;;;19.80;96.60;;;;;;5070636;28;20051;-51
2023/06/10 02:06:04;;;;;;;9.70;4.90;;;19.80;96.70;;;;;;5052482;28;20489;-49
2023/06/10 02:08:30;;;;;;;8.25;4.85;;;19.80;96.80;;;;;;5070311;28;20029;-50
2023/06/10 02:10:55;;;;;;;7.40;4.78;;;19.70;97.00;;;;;;5069906;28;20040;-48
2023/06/10 02:13:21;;;;;;;7.22;4.75;;;19.60;97.10;;;;;;5052617;28;20554;-51
2023/06/10 02:15:53;;;;;;;6.68;4.53;;;19.60;97.30;;;;;;5052257;28;20046;-49
2023/06/10 02:18:20;;;;;;;8.77;4.97;;;19.60;97.40;;;;;;5070844;28;20028;-49
2023/06/10 02:20:46;;;;;;;6.78;4.70;;;19.60;97.50;;;;;;5052492;28;20086;-50
2023/06/10 02:23:12;;;;;;;8.23;4.38;;;19.60;97.80;;;;;;5070561;28;20024;-49
2023/06/10 02:25:38;;;;;;;9.75;4.53;;;19.50;97.90;;;;;;5070137;28;20554;-47
2023/06/10 02:28:04;;;;;;;7.50;4.70;;;19.50;98.10;;;;;;5052553;28;20029;-47
2023/06/10 02:30:30;;;;;;;6.47;4.60;;;19.50;98.00;;;;;;5052213;28;20134;-47
2023/06/10 02:32:56;;;;;;;7.38;5.07;;;19.50;98.10;;;;;;5070642;28;20405;-47
2023/06/10 02:35:24;;;;;;;6.38;4.47;;;19.50;98.30;;;;;;5052348;28;20032;-49
2023/06/10 02:37:51;;;;;;;7.40;4.70;;;19.50;98.30;;;;;;5052245;28;20508;-49
2023/06/10 02:40:18;;;;;;;7.97;4.78;;;19.40;98.40;;;;;;5052286;28;20025;-49
2023/06/10 02:42:44;;;;;;;7.13;4.82;;;19.40;98.50;;;;;;5052231;28;20074;-48
2023/06/10 02:45:10;;;;;;;8.68;4.80;;;19.40;98.70;;;;;;5052245;28;20439;-50
2023/06/10 02:47:41;;;;;;;9.55;4.60;;;19.40;98.70;;;;;;5052096;28;20037;-48
2023/06/10 02:50:09;;;;;;;8.10;4.78;;;19.40;98.80;;;;;;5052100;28;20048;-48
2023/06/10 02:52:42;;;;;;;8.57;4.85;;;19.40;98.90;;;;;;5052220;28;20024;-50
2023/06/10 02:55:09;;;;;;;6.25;4.40;;;19.30;99.20;;;;;;5052262;28;20028;-48
2023/06/10 02:57:36;;;;;;;8.20;4.93;;;19.30;98.90;;;;;;5051895;28;20028;-47
2023/06/10 03:00:09;;;;;;;8.43;4.32;;;19.30;99.00;;;;;;5052060;28;20116;-49
2023/06/10 03:02:36;;;;;;;6.93;4.55;;;19.30;99.20;;;;;;5052139;28;20169;-47
2023/06/10 03:05:03;;;;;;;7.95;5.20;;;19.20;99.20;;;;;;5052200;28;20112;-49
2023/06/10 03:07:30;;;;;;;6.40;4.90;;;19.20;99.40;;;;;;5052074;28;20109;-47
2023/06/10 03:09:56;;;;;;;9.40;4.95;;;19.20;99.50;;;;;;5052024;28;20432;-48
2023/06/10 03:12:22;;;;;;;6.55;4.75;;;19.20;99.60;;;;;;5051921;28;20047;-50
2023/06/10 03:14:48;;;;;;;7.72;5.20;;;19.20;99.50;;;;;;5052387;28;20098;-47
2023/06/10 03:17:15;;;;;;;7.72;4.78;;;19.20;99.60;;;;;;5069822;28;20112;-49
2023/06/10 03:19:42;;;;;;;6.90;4.47;;;19.20;99.60;;;;;;5051933;28;20544;-49
2023/06/10 03:22:12;;;;;;;6.68;4.80;;;19.10;99.70;;;;;;5073013;28;20163;-48
2023/06/10 03:24:43;;;;;;;7.93;5.07;;;19.10;99.90;;;;;;5055677;28;20056;-48
2023/06/10 03:27:10;;;;;;;7.28;4.53;;;19.10;99.90;;;;;;5055338;28;20028;-49
2023/06/10 03:29:39;;;;;;;7.28;5.30;;;19.00;99.90;;;;;;5055605;28;20031;-49
2023/06/10 03:32:06;;;;;;;8.25;4.88;;;19.00;99.90;;;;;;5055277;28;20127;-50
2023/06/10 03:34:33;;;;;;;8.25;5.20;;;19.00;99.90;;;;;;5055440;28;20453;-47
2023/06/10 03:36:59;;;;;;;7.78;5.30;;;18.90;99.90;;;;;;5055295;28;20636;-48
2023/06/10 03:39:28;;;;;;;7.43;4.72;;;18.90;99.90;;;;;;5073235;28;20058;-48
2023/06/10 03:41:59;;;;;;;8.15;5.55;;;18.90;99.90;;;;;;5055155;28;20025;-48
2023/06/10 03:44:26;;;;;;;8.13;5.53;;;18.80;99.90;;;;;;5055475;28;20024;-48
2023/06/10 03:46:52;;;;;;;8.45;5.40;;;18.80;99.90;;;;;;5055140;28;20025;-48
2023/06/10 03:49:18;;;;;;;9.57;5.53;;;18.80;99.90;;;;;;5073223;28;20036;-50
2023/06/10 03:51:43;;;;;;;9.18;5.35;;;18.80;99.90;;;;;;5054871;28;20075;-49
2023/06/10 03:54:10;;;;;;;9.50;5.32;;;18.80;99.90;;;;;;5055180;28;20032;-48
2023/06/10 03:56:36;;;;;;;9.02;5.80;;;18.80;99.90;;;;;;5054849;28;20562;-47
2023/06/10 03:59:01;;;;;;;12.10;5.43;;;18.80;99.90;;;;;;5055186;28;20025;-47
2023/06/10 04:01:28;;;;;;;8.07;5.80;;;18.80;99.90;;;;;;5055015;28;20031;-47
2023/06/10 04:03:55;;;;;;;8.23;5.78;;;18.80;99.90;;;;;;5055131;28;20070;-47
2023/06/10 04:06:22;;;;;;;9.73;5.60;;;18.80;99.90;;;;;;5073052;28;20289;-48
2023/06/10 04:08:48;;;;;;;8.25;5.57;;;18.80;99.90;;;;;;5073222;28;20109;-48
2023/06/10 04:11:14;;;;;;;8.02;5.53;;;18.80;99.90;;;;;;5054722;28;20032;-48
2023/06/10 04:13:40;;;;;;;9.40;6.03;;;18.80;99.90;;;;;;5054837;28;20039;-51
2023/06/10 04:16:06;;;;;;;8.32;5.80;;;18.80;99.90;;;;;;5054678;28;20058;-48
2023/06/10 04:18:31;;;;;;;11.45;5.85;;;18.80;99.90;;;;;;5054596;28;20029;-47
2023/06/10 04:21:02;;;;;;;8.13;5.68;;;18.80;99.90;;;;;;5054377;28;20120;-48
2023/06/10 04:23:30;;;;;;;10.25;6.38;;;18.80;99.90;;;;;;5055082;28;20451;-47
2023/06/10 04:25:56;;;;;;;7.78;5.80;;;18.80;99.90;;;;;;5072370;28;20037;-48
2023/06/10 04:28:23;;;;;;;8.73;5.63;;;18.90;99.90;;;;;;5054510;28;20029;-49
2023/06/10 04:30:49;;;;;;;10.80;6.70;;;18.90;99.90;;;;;;5054109;28;20043;-47
2023/06/10 04:33:16;;;;;;;11.50;6.40;;;18.90;99.90;;;;;;5053262;28;20033;-51
2023/06/10 04:35:42;;;;;;;11.85;6.85;;;18.90;99.90;;;;;;5054178;28;20051;-47
2023/06/10 04:38:12;;;;;;;11.02;6.18;;;18.90;99.90;;;;;;5054382;28;20456;-47
2023/06/10 04:40:38;;;;;;;9.80;6.68;;;18.90;99.90;;;;;;5054006;28;20115;-52
2023/06/10 04:43:04;;;;;;;9.02;6.53;;;18.90;99.90;;;;;;5054250;28;20074;-48
2023/06/10 04:45:31;;;;;;;11.98;7.20;;;18.90;99.90;;;;;;5054184;28;20047;-49
2023/06/10 04:47:58;;;;;;;9.32;6.72;;;19.00;99.90;;;;;;5053836;28;20036;-49
2023/06/10 04:50:24;;;;;;;11.23;6.47;;;19.00;99.90;;;;;;5053818;28;20028;-49
2023/06/10 04:52:49;;;;;;;12.27;7.30;;;19.00;99.90;;;;;;5071800;28;20070;-49
2023/06/10 04:55:16;;;;;;;9.90;6.20;;;19.00;99.90;;;;;;5054022;28;20648;-50
2023/06/10 04:57:42;;;;;;;10.60;7.05;;;19.00;99.90;;;;;;5071562;28;20477;-49
2023/06/10 05:00:08;;;;;;;9.50;6.72;;;19.10;99.90;;;;;;5071638;28;20077;-51
2023/06/10 05:02:34;;;;;;;9.57;6.22;;;19.00;99.90;;;;;;5071384;28;20074;-48
2023/06/10 05:05:00;;;;;;;9.70;6.68;;;19.00;99.90;;;;;;5071616;28;20025;-48
2023/06/10 05:07:25;;;;;;;11.18;6.93;;;19.10;99.90;;;;;;5071448;28;20032;-49
2023/06/10 05:09:51;;;;;;;10.07;6.05;;;19.10;99.90;;;;;;5071620;28;20108;-49
2023/06/10 05:12:17;;;;;;;11.70;6.93;;;19.10;99.90;;;;;;5071171;28;20477;-48
2023/06/10 05:14:44;;;;;;;9.57;6.03;;;19.10;99.90;;;;;;5071474;28;20024;-47
2023/06/10 05:17:10;;;;;;;9.80;6.30;;;19.20;99.90;;;;;;5071131;28;20705;-51
2023/06/10 05:19:37;;;;;;;10.50;6.72;;;19.20;99.90;;;;;;5071333;28;20036;-51
2023/06/10 05:22:03;;;;;;;10.48;6.30;;;19.30;99.90;;;;;;5071008;28;20035;-48
2023/06/10 05:24:29;;;;;;;11.52;6.28;;;19.30;99.90;;;;;;5071250;28;20025;-51
2023/06/10 05:26:54;;;;;;;9.10;6.47;;;19.30;99.90;;;;;;5070930;28;20043;-49
2023/06/10 05:29:20;;;;;;;7.75;5.57;;;19.40;99.90;;;;;;5071172;28;20032;-47
2023/06/10 05:31:46;;;;;;;6.95;5.07;;;19.40;99.90;;;;;;5071017;28;20032;-50
2023/06/10 05:34:12;;;;;;;7.97;5.60;;;19.50;99.90;;;;;;5071368;28;20116;-51
2023/06/10 05:36:37;;;;;;;10.20;5.65;;;19.60;99.90;;;;;;5070738;28;20498;-48
2023/06/10 05:39:03;;;;;;;7.93;5.70;;;19.60;99.90;;;;;;5071051;28;20025;-48
2023/06/10 05:41:29;;;;;;;10.88;5.72;;;19.70;99.90;;;;;;5070663;28;20033;-49
2023/06/10 05:43:55;;;;;;;9.23;5.93;;;19.70;99.90;;;;;;5070809;28;20497;-48
2023/06/10 05:46:22;;;;;;;7.68;5.07;;;19.80;99.90;;;;;;5070534;28;20033;-48
2023/06/10 05:48:47;;;;;;;8.65;5.47;;;19.90;99.90;;;;;;5070878;28;20028;-49
2023/06/10 05:51:13;;;;;;;8.93;5.50;;;19.90;99.90;;;;;;5070543;28;20055;-51
2023/06/10 05:53:39;;;;;;;8.95;5.38;;;20.00;99.90;;;;;;5070882;28;20070;-48
2023/06/10 05:56:05;;;;;;;8.48;5.40;;;20.00;99.90;;;;;;5070585;28;20032;-51
2023/06/10 05:58:31;;;;;;;9.63;5.60;;;20.10;99.90;;;;;;5070914;28;20028;-50
2023/06/10 06:00:56;;;;;;;7.97;5.25;;;20.10;99.40;;;;;;5070286;28;20017;-47
2023/06/10 06:03:22;;;;;;;7.55;4.90;;;20.20;99.60;;;;;;5070645;28;20029;-50
2023/06/10 06:05:48;;;;;;;8.30;4.95;;;20.20;99.70;;;;;;5070526;28;20028;-49
2023/06/10 06:08:17;;;;;;;7.75;4.88;;;20.30;99.30;;;;;;5070809;28;20545;-48
2023/06/10 06:10:42;;;;;;;;;;;20.40;98.90;;;;;;5071071;28;20021;-48
2023/06/10 06:13:08;;;;;;;8.27;4.78;;;20.50;98.40;;;;;;5070724;28;20249;-48
2023/06/10 06:15:34;;;;;;;8.60;5.03;;;20.60;98.30;;;;;;5070406;28;20028;-47
2023/06/10 06:17:59;;;;;;;7.72;4.93;;;20.70;98.00;;;;;;5070996;28;20492;-46
2023/06/10 06:20:25;;;;;;;6.50;4.30;;;20.80;97.90;;;;;;5070519;28;20477;-48
2023/06/10 06:22:51;;;;;;;7.53;4.82;;;20.90;97.70;;;;;;5070591;28;20029;-47
2023/06/10 06:25:17;;;;;;;7.43;4.63;;;21.00;98.00;;;;;;5070535;28;20036;-47
2023/06/10 06:27:42;;;;;;;7.50;4.60;;;21.10;97.70;;;;;;5070979;28;20554;-47
2023/06/10 06:30:09;;;;;;;8.68;4.57;;;21.30;97.10;;;;;;5070218;28;20443;-47
2023/06/10 06:32:34;;;;;;;8.20;4.70;;;21.40;96.90;;;;;;5070361;28;20115;-46
2023/06/10 06:35:00;;;;;;;7.35;4.50;;;21.50;96.20;;;;;;5070365;28;20158;-47
2023/06/10 06:37:26;;;;;;;8.93;4.63;;;21.50;95.90;;;;;;5070132;28;20074;-46
2023/06/10 06:40:03;;;;;;;7.30;4.40;;;21.70;95.50;;;;;;5037257;28;20396;-49
2023/06/10 06:42:29;;;;;;;6.95;4.60;;;21.80;95.40;;;;;;5070137;28;20052;-51
2023/06/10 06:45:03;;;;;;;8.50;5.75;;;21.90;94.90;;;;;;5052371;28;20024;-47
2023/06/10 06:47:29;;;;;;;6.47;3.97;;;22.10;94.70;;;;;;5070171;28;20032;-49
2023/06/10 06:49:54;;;;;;;7.53;4.13;;;22.20;94.80;;;;;;5070345;28;20032;-47
2023/06/10 06:52:22;;;;;;;8.35;4.45;;;22.40;94.60;;;;;;5070018;28;20050;-48
2023/06/10 06:54:48;;;;;;;7.95;4.57;;;22.40;93.80;;;;;;5070428;28;20036;-46
2023/06/10 06:57:13;;;;;;;6.75;4.57;;;22.50;93.90;;;;;;5073530;28;20032;-48
2023/06/10 06:59:39;;;;;;;9.75;5.30;;;22.70;93.80;;;;;;5074194;28;20033;-47
2023/06/10 07:02:05;;;;;;;8.32;4.22;;;22.80;94.40;;;;;;5074022;28;20032;-47
2023/06/10 07:04:31;;;;;;;9.38;5.80;;;22.80;93.60;;;;;;5074115;28;20473;-47
2023/06/10 07:06:57;;;;;;;6.97;3.97;;;23.00;93.40;;;;;;5073986;28;20028;-47
2023/06/10 07:09:22;;;;;;;7.07;4.20;;;23.00;93.00;;;;;;5074217;28;20082;-48
2023/06/10 07:11:48;;;;;;;8.68;4.25;;;23.10;92.00;;;;;;5073798;28;20025;-47
2023/06/10 07:14:14;;;;;;;6.03;4.00;;;23.10;91.70;;;;;;5074056;28;20397;-49
2023/06/10 07:16:40;;;;;;;5.68;3.75;;;23.20;92.80;;;;;;5073815;28;20036;-46
2023/06/10 07:19:06;;;;;;;6.00;4.15;;;23.20;92.20;;;;;;5055933;28;20440;-46
2023/06/10 07:21:33;;;;;;;5.65;3.60;;;23.30;92.20;;;;;;5073519;28;20036;-47
2023/06/10 07:23:59;;;;;;;6.53;3.60;;;23.40;91.00;;;;;;5073779;28;20040;-47
2023/06/10 07:26:25;;;;;;;7.55;4.95;;;23.50;91.10;;;;;;5073419;28;20032;-48
2023/06/10 07:28:51;;;;;;;17.98;11.02;;;23.80;91.10;;;;;;5073474;28;20028;-48
2023/06/10 07:31:17;;;;;;;6.38;3.67;;;24.00;90.10;;;;;;5073292;28;20036;-47
2023/06/10 07:33:43;;;;;;;5.03;3.28;;;24.20;90.50;;;;;;5073491;28;20029;-48
2023/06/10 07:36:09;;;;;;;9.80;5.45;;;24.30;88.70;;;;;;5073157;28;20045;-48
2023/06/10 07:38:35;;;;;;;5.70;3.65;;;24.50;87.80;;;;;;5073456;28;20024;-47
2023/06/10 07:41:01;;;;;;;6.13;3.70;;;24.50;89.00;;;;;;5072996;28;20028;-47
2023/06/10 07:43:27;;;;;;;5.85;3.83;;;24.50;87.80;;;;;;5073191;28;20405;-47
2023/06/10 07:45:52;;;;;;;6.20;3.88;;;24.60;87.30;;;;;;5073182;28;20020;-47
2023/06/10 07:48:18;;;;;;;5.55;3.58;;;24.70;87.30;;;;;;5073354;28;20131;-48
2023/06/10 07:50:44;;;;;;;4.85;3.50;;;24.70;86.30;;;;;;5072985;28;20036;-49
2023/06/10 07:53:10;;;;;;;5.70;4.25;;;24.70;87.50;;;;;;5073086;28;20032;-47
2023/06/10 07:55:35;;;;;;;6.68;3.78;;;24.80;86.30;;;;;;5072736;28;20036;-48
2023/06/10 07:58:01;;;;;;;6.00;3.50;;;24.80;87.00;;;;;;5054868;28;20036;-48
2023/06/10 08:00:27;;;;;;;8.77;5.20;;;24.80;86.50;;;;;;5072779;28;20039;-49
2023/06/10 08:02:53;;;;;;;4.75;3.35;;;24.90;86.10;;;;;;5072913;28;20028;-48
2023/06/10 08:05:18;;;;;;;6.07;3.75;;;25.00;87.70;;;;;;5073031;28;20029;-50
2023/06/10 08:07:45;;;;;;;5.82;3.58;;;25.00;83.80;;;;;;5071376;28;20068;-48
2023/06/10 08:10:10;;;;;;;7.25;4.03;;;25.10;84.60;;;;;;5072922;28;20522;-49
2023/06/10 08:12:36;;;;;;;5.35;3.58;;;25.20;85.10;;;;;;5072534;28;20103;-48
2023/06/10 08:15:03;;;;;;;7.60;3.25;;;25.20;83.70;;;;;;5072673;28;20029;-48
2023/06/10 08:17:30;;;;;;;5.82;3.58;;;25.20;84.60;;;;;;5072430;28;20047;-50
2023/06/10 08:19:56;;;;;;;8.07;4.45;;;25.30;85.00;;;;;;5072841;28;20032;-48
2023/06/10 08:22:21;;;;;;;8.32;4.93;;;25.50;85.60;;;;;;5072341;28;20024;-47
2023/06/10 08:24:47;;;;;;;4.35;3.30;;;25.50;84.10;;;;;;5072452;28;20033;-49
2023/06/10 08:27:13;;;;;;;5.20;3.50;;;25.60;83.80;;;;;;5112538;22;20059;-54
2023/06/10 08:29:39;;;;;;;5.10;3.28;;;25.70;82.50;;;;;;5072351;28;20481;-53
2023/06/10 08:32:06;;;;;;;5.18;3.08;;;25.70;83.40;;;;;;5053987;28;20033;-53
2023/06/10 08:34:35;;;;;;;6.13;3.80;;;25.70;83.00;;;;;;5072393;28;20107;-52
2023/06/10 08:37:01;;;;;;;6.07;3.53;;;25.70;81.30;;;;;;5071941;28;20039;-53
2023/06/10 08:39:27;;;;;;;5.55;3.47;;;25.70;80.90;;;;;;5072196;28;20393;-51
2023/06/10 08:42:17;;;;;;;5.15;3.30;;;25.70;82.30;;;;;;5071816;28;20020;-54
2023/06/10 08:44:45;;;;;;;4.85;3.50;;;25.80;82.80;;;;;;5071967;28;20112;-55
2023/06/10 08:47:15;;;;;;;9.52;5.22;;;25.80;80.30;;;;;;5071838;28;20036;-56
2023/06/10 08:49:45;;;;;;;16.30;10.73;;;25.90;84.80;;;;;;5071934;28;20081;-53
2023/06/10 08:52:19;;;;;;;5.13;3.55;;;26.00;80.80;;;;;;5071760;28;20048;-51
2023/06/10 08:54:52;;;;;;;7.45;4.63;;;26.10;81.10;;;;;;5071887;28;20454;-55
2023/06/10 08:57:20;;;;;;;5.07;3.33;;;26.20;80.70;;;;;;5071436;28;20043;-50
2023/06/10 08:59:46;;;;;;;5.90;3.60;;;26.30;78.60;;;;;;5071740;28;20060;-53
2023/06/10 09:02:14;;;;;;;5.65;3.28;;;26.30;79.70;;;;;;5071492;28;20079;-56
2023/06/10 09:04:43;;;;;;;6.93;3.30;;;26.40;80.50;;;;;;5071744;28;20159;-53
2023/06/10 09:07:09;;;;;;;;;;;26.50;78.80;;;;;;5072229;28;20039;-55
2023/06/10 09:09:35;;;;;;;;;;;26.50;81.40;;;;;;5072540;28;19908;-53
2023/06/10 09:12:00;;;;;;;;;;;26.50;80.00;;;;;;5072392;28;19915;-50
2023/06/10 09:14:26;;;;;;;;;;;26.60;79.40;;;;;;5072748;28;20316;-51
2023/06/10 09:16:56;;;;;;;;;;;26.70;78.80;;;;;;5072949;28;19958;-51
2023/06/10 09:19:22;;;;;;;;;;;26.80;80.30;;;;;;5073646;28;20343;-51
2023/06/10 09:21:48;;;;;;;;;;;26.80;80.80;;;;;;5074413;28;19914;-52
2023/06/10 09:24:14;;;;;;;;;;;26.80;77.30;;;;;;5073953;28;19908;-55
2023/06/10 09:26:40;;;;;;;;;;;26.80;77.40;;;;;;5072700;28;19995;-55
2023/06/10 09:29:06;;;;;;;;;;;26.90;78.30;;;;;;5071761;28;20412;-53
2023/06/10 09:31:34;;;;;;;;;;;27.00;77.00;;;;;;5071474;28;19912;-53
2023/06/10 09:34:06;;;;;;;;;;;27.10;77.90;;;;;;5071743;28;19927;-55
2023/06/10 09:36:32;;;;;;;;;;;27.10;79.40;;;;;;5071475;28;19973;-54
2023/06/10 09:38:58;;;;;;;;;;;27.30;77.30;;;;;;5071636;28;19919;-51
2023/06/10 09:41:34;;;;;;;;;;;27.30;75.70;;;;;;5071257;28;19999;-53
2023/06/10 09:44:00;;;;;;;;;;;27.40;77.10;;;;;;5071548;28;19916;-53
2023/06/10 09:46:30;;;;;;;;;;;27.50;76.10;;;;;;5071510;28;20174;-54
2023/06/10 09:48:57;;;;;;;;;;;27.50;77.80;;;;;;5071394;28;19912;-55
2023/06/10 09:51:23;;;;;;;;;;;27.60;76.00;;;;;;5071257;28;19934;-55
2023/06/10 09:53:50;;;;;;;;;;;27.70;76.10;;;;;;5071413;28;20369;-51
2023/06/10 09:56:15;;;;;;;;;;;27.80;75.30;;;;;;5071236;28;19985;-53
2023/06/10 09:58:43;;;;;;;;;;;27.90;75.10;;;;;;5071525;28;20427;-54
2023/06/10 10:01:10;;;;;;;;;;;27.90;75.40;;;;;;5071169;28;19908;-54
2023/06/10 10:03:46;;;;;;;;;;;27.90;74.90;;;;;;5071248;28;19908;-54
2023/06/10 10:06:12;;;;;;;;;;;27.90;73.80;;;;;;5071088;28;19908;-54
2023/06/10 10:08:38;;;;;;;;;;;27.90;74.30;;;;;;5071424;28;19915;-56
2023/06/10 10:11:03;;;;;;;;;;;27.90;78.10;;;;;;5070960;28;19908;-56
2023/06/10 10:13:33;;;;;;;;;;;28.00;76.70;;;;;;5071180;28;19959;-53
2023/06/10 10:16:01;;;;;;;;;;;28.10;74.90;;;;;;5071115;28;19908;-54
2023/06/10 10:18:30;;;;;;;;;;;28.10;75.20;;;;;;5071255;28;20421;-52
2023/06/10 10:20:57;;;;;;;;;;;28.10;74.60;;;;;;5070931;28;19908;-54
2023/06/10 10:23:31;;;;;;;;;;;28.20;73.00;;;;;;5071121;28;19920;-52
2023/06/10 10:26:00;;;;;;;;;;;28.30;73.10;;;;;;5070724;28;19912;-54
2023/06/10 10:28:29;;;;;;;;;;;28.30;73.40;;;;;;5053355;28;19908;-53
2023/06/10 10:30:57;;;;;;;;;;;28.30;73.40;;;;;;5072492;28;19909;-49
2023/06/10 10:33:25;;;;;;;;;;;28.40;73.40;;;;;;5075137;28;19958;-54
2023/06/10 10:35:51;;;;;;;;;;;28.50;73.00;;;;;;5075205;28;20315;-53
2023/06/10 10:38:17;;;;;;;;;;;28.60;73.50;;;;;;5075155;28;19931;-56
2023/06/10 10:40:44;;;;;;;;;;;28.60;74.90;;;;;;5074834;28;19999;-55
2023/06/10 10:43:09;;;;;;;;;;;28.70;71.30;;;;;;5075079;28;20235;-55
2023/06/10 10:45:35;;;;;;;;;;;28.70;71.20;;;;;;5075023;28;20330;-54
2023/06/10 10:48:11;;;;;;;;;;;28.70;71.60;;;;;;5075230;28;19999;-53
2023/06/10 10:50:37;;;;;;;;;;;28.70;71.50;;;;;;5074900;28;19915;-54
2023/06/10 10:53:04;;;;;;;;;;;28.90;72.20;;;;;;5075029;28;19912;-54
2023/06/10 10:55:30;;;;;;;;;;;28.90;71.50;;;;;;5076314;28;20003;-56
2023/06/10 10:57:59;;;;;;;;;;;29.00;70.80;;;;;;5075056;28;19913;-50
2023/06/10 11:00:45;;;;;;;;;;;29.10;71.40;;;;;;5074899;28;19995;-51
2023/06/10 11:03:14;;;;;;;;;;;29.20;70.70;;;;;;5074453;28;19916;-51
2023/06/10 11:05:41;;;;;;;;;;;29.10;67.80;;;;;;5074739;28;20253;-54
2023/06/10 11:08:08;;;;;;;;;;;29.20;68.40;;;;;;5074496;28;19915;-52
2023/06/10 11:10:34;;;;;;;;;;;29.20;67.40;;;;;;5074220;28;20003;-56
2023/06/10 11:13:05;;;;;;;;;;;29.20;68.30;;;;;;5074706;28;19915;-53
2023/06/10 11:15:30;;;;;;;;;;;29.30;68.60;;;;;;5074502;28;19914;-53
2023/06/10 11:18:09;;;;;;;;;;;29.20;70.00;;;;;;5074282;28;19912;-55
2023/06/10 11:20:50;;;;;;;;;;;29.20;67.40;;;;;;5074110;28;19915;-52
2023/06/10 11:23:26;;;;;;;;;;;29.10;67.70;;;;;;5074196;28;20235;-56
2023/06/10 11:25:51;;;;;;;;;;;29.40;64.60;;;;;;5073917;28;20183;-52
2023/06/10 11:28:19;;;;;;;;;;;29.40;65.50;;;;;;5074243;28;19919;-56
2023/06/10 11:30:45;;;;;;;;;;;29.40;65.50;;;;;;5074321;28;19916;-56
2023/06/10 11:33:14;;;;;;;;;;;29.30;66.10;;;;;;5074009;28;19909;-54
2023/06/10 11:35:40;;;;;;;;;;;29.40;65.80;;;;;;5074429;28;19909;-51
2023/06/10 11:38:06;;;;;;;;;;;29.40;65.40;;;;;;5073819;28;19920;-53
2023/06/10 11:40:31;;;;;;;;;;;29.40;65.70;;;;;;5073739;28;19915;-50
2023/06/10 11:42:58;;;;;;;;;;;29.40;65.40;;;;;;5073625;28;19908;-50
2023/06/10 11:45:23;;;;;;;;;;;29.40;65.10;;;;;;5073896;28;19915;-50
2023/06/10 11:47:56;;;;;;;;;;;29.30;64.00;;;;;;5073620;28;19908;-50
2023/06/10 11:50:33;;;;;;;;;;;29.40;64.30;;;;;;5073937;28;19916;-51
2023/06/10 11:52:59;;;;;;;;;;;29.40;64.30;;;;;;5073560;28;19954;-54
2023/06/10 11:55:40;;;;;;;;;;;29.40;63.20;;;;;;5074057;28;19908;-50
2023/06/10 11:58:11;;;;;;;;;;;29.40;63.70;;;;;;5073831;28;20064;-55
2023/06/10 12:00:43;;;;;;;;;;;29.50;62.80;;;;;;5073369;28;19912;-55
2023/06/10 12:03:09;;;;;;;;;;;29.50;63.00;;;;;;5073649;28;19908;-55
2023/06/10 12:05:35;;;;;;;;;;;29.50;63.70;;;;;;5073508;28;20265;-54
2023/06/10 12:08:11;;;;;;;;;;;29.50;63.40;;;;;;5073576;28;19963;-54
2023/06/10 12:10:42;;;;;;;;;;;29.50;64.30;;;;;;5073241;28;19926;-52
2023/06/10 12:13:09;;;;;;;;;;;29.50;63.80;;;;;;5073217;28;19904;-54
2023/06/10 12:15:34;;;;;;;;;;;29.60;63.70;;;;;;5073372;28;19909;-54
2023/06/10 12:18:00;;;;;;;;;;;29.70;64.40;;;;;;5072954;28;20029;-53
2023/06/10 12:20:31;;;;;;;;;;;29.70;63.00;;;;;;5073053;28;20257;-55
2023/06/10 12:22:57;;;;;;;;;;;29.70;62.10;;;;;;5072888;28;20279;-57
2023/06/10 12:25:26;;;;;;;;;;;29.60;62.00;;;;;;5072938;28;19916;-56
2023/06/10 12:27:55;;;;;;;;;;;29.60;61.90;;;;;;5072700;28;19916;-52
2023/06/10 12:30:24;;;;;;;;;;;29.60;63.00;;;;;;5073037;28;20369;-53
2023/06/10 12:32:50;;;;;;;;;;;29.60;63.50;;;;;;5072782;28;20439;-56
2023/06/10 12:35:20;;;;;;;;;;;29.70;62.00;;;;;;5072955;28;19947;-52
2023/06/10 12:38:04;;;;;;;;;;;29.80;60.90;;;;;;5072518;28;19931;-56
2023/06/10 12:40:31;;;;;;;;;;;29.80;61.50;;;;;;5072582;28;20350;-54
2023/06/10 12:42:57;;;;;;;;;;;29.80;62.90;;;;;;5072889;28;19948;-56
2023/06/10 12:45:26;;;;;;;;;;;29.80;61.80;;;;;;5072792;28;19912;-52
2023/06/10 12:47:52;;;;;;;;;;;29.90;61.60;;;;;;5072547;28;19908;-54
2023/06/10 12:50:17;;;;;;;;;;;29.90;61.00;;;;;;5072458;28;19908;-57
2023/06/10 12:52:43;;;;;;;;;;;29.80;60.80;;;;;;5072330;28;20426;-55
2023/06/10 12:55:08;;;;;;;;;;;29.90;61.50;;;;;;5072189;28;19908;-57
2023/06/10 12:57:34;;;;;;;;;;;29.90;60.70;;;;;;5072355;28;19912;-56
2023/06/10 13:00:03;;;;;;;;;;;29.90;60.10;;;;;;5072444;28;20415;-54
2023/06/10 13:02:29;;;;;;;;;;;29.90;60.50;;;;;;5072293;28;19908;-55
2023/06/10 13:04:55;;;;;;;;;;;30.00;60.60;;;;;;5072209;28;19962;-53
2023/06/10 13:07:22;;;;;;;;;;;30.00;61.40;;;;;;5071959;28;19955;-55
2023/06/10 13:09:48;;;;;;;;;;;30.00;61.70;;;;;;5072220;28;19916;-54
2023/06/10 13:12:14;;;;;;;;;;;30.00;61.20;;;;;;5071902;28;20280;-55
2023/06/10 13:14:40;;;;;;;;;;;30.10;61.70;;;;;;5072073;28;19908;-52